Time;durP1;ratioP1;P1;durP2;ratioP2;P2;SDS_P1;SDS_P2;PMS_P1;PMS_P2;Temp;Humidity;BMP_temperature;BMP_pressure;BME280_temperature;BME280_humidity;BME280_pressure;Samples;Min_cycle;Max_cycle;Signal;HPM_P1;HPM_P2
2022/06/03 00:00:11;;;;;;;23.40;17.25;;;;;;;;;;5014790;28;20100;-55
2022/06/03 00:03:09;;;;;;;21.10;15.88;;;;;;;;;;5019512;28;20095;-55
2022/06/03 00:06:18;;;;;;;20.05;16.35;;;;;;;;;;5043069;22;20034;-56
2022/06/03 00:09:23;;;;;;;20.05;15.50;;;;;;;;;;4986538;28;20509;-52
2022/06/03 00:12:31;;;;;;;24.38;16.45;;;;;;;;;;5014162;28;20054;-55
2022/06/03 00:15:11;;;;;;;21.02;15.73;;;;;;;;;;5006075;28;20065;-54
2022/06/03 00:17:57;;;;;;;20.75;16.50;;;;;;;;;;5014971;28;20053;-54
2022/06/03 00:20:46;;;;;;;20.33;15.85;;;;;;;;;;5014014;28;20423;-55
2022/06/03 00:23:41;;;;;;;22.77;16.25;;;;;;;;;;5014725;28;20582;-53
2022/06/03 00:26:20;;;;;;;22.70;17.05;;;;;;;;;;5011859;28;20057;-57
2022/06/03 00:29:06;;;;;;;21.42;16.45;;;;;;;;;;5014416;28;20104;-55
2022/06/03 00:31:49;;;;;;;25.25;16.77;;;;;;;;;;5013901;28;20491;-58
2022/06/03 00:34:48;;;;;;;22.42;16.00;;;;;;;;;;5014193;28;20053;-52
2022/06/03 00:37:31;;;;;;;24.67;16.67;;;;;;;;;;5013639;28;20058;-53
2022/06/03 00:40:10;;;;;;;21.52;15.95;;;;;;;;;;5013245;28;20150;-52
2022/06/03 00:43:04;;;;;;;25.45;17.58;;;;;;;;;;5013771;28;20049;-52
2022/06/03 00:45:47;;;;;;;25.42;18.17;;;;;;;;;;5003752;28;20054;-55
2022/06/03 00:48:46;;;;;;;25.38;17.42;;;;;;;;;;5014137;28;20084;-55
2022/06/03 00:51:59;;;;;;;25.45;17.75;;;;;;;;;;4980385;28;20104;-55
2022/06/03 00:55:05;;;;;;;24.60;16.95;;;;;;;;;;4978550;28;20518;-55
2022/06/03 00:58:08;;;;;;;22.15;17.83;;;;;;;;;;4964262;28;20058;-57
2022/06/03 01:00:41;;;;;;;20.85;17.70;;;;;;;;;;5001778;28;20056;-55
2022/06/03 01:03:15;;;;;;;23.23;17.85;;;;;;;;;;5014080;28;20045;-54
2022/06/03 01:05:53;;;;;;;22.85;17.20;;;;;;;;;;5013683;28;20050;-55
2022/06/03 01:08:33;;;;;;;23.42;17.58;;;;;;;;;;5013547;28;20057;-51
2022/06/03 01:11:14;;;;;;;21.67;16.25;;;;;;;;;;5013012;28;20049;-57
2022/06/03 01:14:10;;;;;;;23.45;17.67;;;;;;;;;;5013378;28;20066;-57
2022/06/03 01:16:54;;;;;;;21.48;17.02;;;;;;;;;;5000711;28;20422;-57
2022/06/03 01:19:40;;;;;;;22.27;16.80;;;;;;;;;;5013091;28;20135;-53
2022/06/03 01:22:25;;;;;;;23.88;16.90;;;;;;;;;;5013185;28;20049;-54
2022/06/03 01:25:10;;;;;;;21.75;16.50;;;;;;;;;;4993686;28;20058;-56
2022/06/03 01:28:28;;;;;;;20.40;16.55;;;;;;;;;;4995783;28;20058;-56
2022/06/03 01:31:27;;;;;;;22.90;16.45;;;;;;;;;;5012962;28;20057;-54
2022/06/03 01:34:10;;;;;;;24.02;16.77;;;;;;;;;;5013150;28;20115;-51
2022/06/03 01:36:53;;;;;;;24.75;17.42;;;;;;;;;;5013223;28;20042;-51
2022/06/03 01:40:00;;;;;;;21.00;16.20;;;;;;;;;;5012501;28;20392;-52
2022/06/03 01:42:41;;;;;;;21.75;17.08;;;;;;;;;;5013131;28;20050;-53
2022/06/03 01:45:20;;;;;;;23.60;17.52;;;;;;;;;;5013334;28;20084;-56
2022/06/03 01:48:08;;;;;;;22.55;17.17;;;;;;;;;;5013227;28;20042;-53
2022/06/03 01:51:00;;;;;;;22.52;16.50;;;;;;;;;;5012852;28;20045;-53
2022/06/03 01:53:59;;;;;;;24.52;18.30;;;;;;;;;;5009981;28;20065;-52
2022/06/03 01:56:56;;;;;;;23.50;17.38;;;;;;;;;;5012335;28;20041;-50
2022/06/03 01:59:59;;;;;;;20.92;16.70;;;;;;;;;;5011845;28;20049;-56
2022/06/03 02:02:54;;;;;;;21.00;16.38;;;;;;;;;;4989655;28;20084;-54
2022/06/03 02:05:55;;;;;;;23.05;17.65;;;;;;;;;;5012817;28;20115;-53
2022/06/03 02:08:49;;;;;;;25.25;16.55;;;;;;;;;;4992993;28;20058;-57
2022/06/03 02:11:48;;;;;;;22.52;16.85;;;;;;;;;;5012368;28;20438;-56
2022/06/03 02:14:57;;;;;;;18.80;15.13;;;;;;;;;;5012908;28;20411;-55
2022/06/03 02:17:52;;;;;;;21.63;16.40;;;;;;;;;;5012496;28;20060;-52
2022/06/03 02:21:05;;;;;;;20.85;15.68;;;;;;;;;;5005882;28;20046;-56
2022/06/03 02:24:07;;;;;;;20.13;16.20;;;;;;;;;;5012396;28;20052;-55
2022/06/03 02:27:18;;;;;;;22.05;15.45;;;;;;;;;;5010136;28;20056;-55
2022/06/03 02:30:28;;;;;;;20.88;15.57;;;;;;;;;;5012387;28;20081;-57
2022/06/03 02:33:33;;;;;;;19.77;15.23;;;;;;;;;;5011855;28;20112;-52
2022/06/03 02:36:37;;;;;;;19.88;14.27;;;;;;;;;;5010854;28;20487;-54
2022/06/03 02:39:13;;;;;;;18.85;15.40;;;;;;;;;;5012306;28;20046;-54
2022/06/03 02:42:09;;;;;;;18.38;14.05;;;;;;;;;;5012071;28;20438;-51
2022/06/03 02:45:12;;;;;;;18.58;14.27;;;;;;;;;;5011783;28;20050;-55
2022/06/03 02:48:29;;;;;;;20.23;14.32;;;;;;;;;;5002630;28;20145;-56
2022/06/03 02:51:20;;;;;;;18.38;13.07;;;;;;;;;;4951512;29;20079;-56
2022/06/03 02:54:26;;;;;;;20.00;13.75;;;;;;;;;;5003694;28;20096;-57
2022/06/03 02:57:26;;;;;;;22.48;13.68;;;;;;;;;;5012716;28;20053;-54
2022/06/03 03:00:17;;;;;;;20.10;13.80;;;;;;;;;;5009920;28;20065;-54
2022/06/03 03:03:43;;;;;;;20.17;13.93;;;;;;;;;;5011819;28;20310;-52
2022/06/03 03:06:48;;;;;;;18.98;14.60;;;;;;;;;;5016594;28;20053;-55
2022/06/03 03:09:34;;;;;;;22.60;16.45;;;;;;;;;;4990352;28;20487;-56
2022/06/03 03:12:33;;;;;;;22.05;15.70;;;;;;;;;;5015876;28;20054;-55
2022/06/03 03:15:34;;;;;;;20.95;15.50;;;;;;;;;;4996424;28;20054;-54
2022/06/03 03:18:26;;;;;;;21.52;15.43;;;;;;;;;;5001004;28;20053;-55
2022/06/03 03:21:22;;;;;;;18.75;14.48;;;;;;;;;;4999414;28;20046;-51
2022/06/03 03:24:27;;;;;;;22.05;15.73;;;;;;;;;;5014177;28;20054;-56
2022/06/03 03:27:15;;;;;;;21.75;14.45;;;;;;;;;;5015460;28;20046;-56
2022/06/03 03:30:06;;;;;;;19.05;14.68;;;;;;;;;;5015656;28;20046;-55
2022/06/03 03:32:47;;;;;;;;;;;;;;;;;;5013145;28;20120;-56
2022/06/03 03:35:27;;;;;;;27.45;15.98;;;;;;;;;;4996490;28;20025;-51
2022/06/03 03:38:19;;;;;;;20.90;14.37;;;;;;;;;;4997072;28;20082;-58
2022/06/03 03:41:28;;;;;;;23.58;14.65;;;;;;;;;;5014871;28;20050;-50
2022/06/03 03:44:14;;;;;;;21.30;14.70;;;;;;;;;;4999837;28;20056;-56
2022/06/03 03:47:19;;;;;;;21.50;14.68;;;;;;;;;;5015385;28;20054;-52
2022/06/03 03:50:42;;;;;;;21.58;15.68;;;;;;;;;;5000943;28;20042;-55
2022/06/03 03:53:38;;;;;;;24.20;16.00;;;;;;;;;;4974250;28;20050;-57
2022/06/03 03:56:41;;;;;;;22.98;16.40;;;;;;;;;;4974504;28;20062;-54
2022/06/03 03:59:43;;;;;;;21.23;16.70;;;;;;;;;;4999135;28;20065;-54
2022/06/03 04:02:54;;;;;;;24.30;16.45;;;;;;;;;;4976450;28;20058;-51
2022/06/03 04:06:11;;;;;;;24.70;16.45;;;;;;;;;;4983009;28;20051;-52
2022/06/03 04:09:07;;;;;;;24.42;16.52;;;;;;;;;;4931709;29;20052;-56
2022/06/03 04:12:30;;;;;;;28.05;18.60;;;;;;;;;;5011238;28;20094;-56
2022/06/03 04:15:41;;;;;;;24.65;18.05;;;;;;;;;;4971891;28;20054;-56
2022/06/03 04:18:35;;;;;;;29.98;19.73;;;;;;;;;;4968528;28;20057;-55
2022/06/03 04:21:32;;;;;;;30.98;20.27;;;;;;;;;;5014656;28;20046;-55
2022/06/03 04:24:41;;;;;;;29.38;18.83;;;;;;;;;;5001925;28;20427;-55
2022/06/03 04:27:40;;;;;;;23.63;18.00;;;;;;;;;;5014511;28;20056;-53
2022/06/03 04:30:40;;;;;;;31.60;18.95;;;;;;;;;;5014263;28;20054;-55
2022/06/03 04:33:40;;;;;;;30.73;18.38;;;;;;;;;;5014295;28;20557;-57
2022/06/03 04:36:48;;;;;;;29.05;18.35;;;;;;;;;;5011620;28;20423;-56
2022/06/03 04:40:04;;;;;;;25.92;17.55;;;;;;;;;;4989306;28;20046;-54
2022/06/03 04:43:24;;;;;;;27.58;18.15;;;;;;;;;;4958535;28;20102;-53
2022/06/03 04:46:28;;;;;;;23.50;17.85;;;;;;;;;;5014230;28;20242;-57
2022/06/03 04:49:36;;;;;;;27.48;19.25;;;;;;;;;;4973063;28;20411;-55
2022/06/03 04:52:38;;;;;;;27.50;18.33;;;;;;;;;;5000767;28;20057;-53
2022/06/03 04:55:55;;;;;;;23.13;18.70;;;;;;;;;;5011975;28;20050;-55
2022/06/03 04:59:06;;;;;;;22.55;16.13;;;;;;;;;;4993409;28;20456;-55
2022/06/03 05:01:52;;;;;;;;;;;;;;;;;;4995445;28;20086;-56
2022/06/03 05:04:58;;;;;;;21.40;15.90;;;;;;;;;;5013983;28;19928;-55
2022/06/03 05:08:27;;;;;;;23.23;16.05;;;;;;;;;;5013836;28;20064;-57
2022/06/03 05:11:28;;;;;;;21.27;15.38;;;;;;;;;;4953140;29;20043;-55
2022/06/03 05:14:31;;;;;;;26.27;16.35;;;;;;;;;;4952820;29;20051;-54
2022/06/03 05:17:39;;;;;;;21.65;15.30;;;;;;;;;;4989075;28;20134;-53
2022/06/03 05:20:23;;;;;;;19.88;14.90;;;;;;;;;;5000749;28;20052;-52
2022/06/03 05:23:20;;;;;;;21.33;14.85;;;;;;;;;;5012831;28;20459;-56
2022/06/03 05:26:21;;;;;;;22.55;15.85;;;;;;;;;;4991000;28;20482;-51
2022/06/03 05:29:28;;;;;;;21.73;14.93;;;;;;;;;;5008774;28;20060;-55
2022/06/03 05:32:26;;;;;;;20.42;14.77;;;;;;;;;;4952209;29;20508;-55
2022/06/03 05:35:27;;;;;;;19.70;14.95;;;;;;;;;;4953252;29;20058;-53
2022/06/03 05:38:17;;;;;;;19.90;14.82;;;;;;;;;;5001150;28;20050;-56
2022/06/03 05:41:03;;;;;;;23.63;15.45;;;;;;;;;;5014263;28;20503;-53
2022/06/03 05:43:59;;;;;;;19.05;13.95;;;;;;;;;;4994347;28;20053;-55
2022/06/03 05:46:37;;;;;;;23.08;14.80;;;;;;;;;;5008279;28;20053;-52
2022/06/03 05:49:19;;;;;;;22.65;15.93;;;;;;;;;;5014244;28;20083;-56
2022/06/03 05:52:14;;;;;;;19.05;14.23;;;;;;;;;;5013715;28;20104;-55
2022/06/03 05:54:54;;;;;;;19.65;14.65;;;;;;;;;;4994121;28;20050;-54
2022/06/03 05:57:30;;;;;;;19.45;14.18;;;;;;;;;;5008502;28;20050;-55
2022/06/03 06:00:26;;;;;;;20.13;14.35;;;;;;;;;;5001691;28;20049;-56
2022/06/03 06:03:09;;;;;;;18.48;13.75;;;;;;;;;;5012717;28;20057;-55
2022/06/03 06:05:40;;;;;;;18.13;14.00;;;;;;;;;;4993609;28;20078;-55
2022/06/03 06:08:25;;;;;;;29.48;17.55;;;;;;;;;;5027937;23;20111;-54
2022/06/03 06:11:03;;;;;;;24.92;16.38;;;;;;;;;;5031975;28;20050;-50
2022/06/03 06:14:09;;;;;;;22.13;14.68;;;;;;;;;;5032570;28;20501;-50
2022/06/03 06:16:41;;;;;;;17.67;13.95;;;;;;;;;;5001037;28;20061;-50
2022/06/03 06:19:13;;;;;;;21.00;14.20;;;;;;;;;;5031869;28;20053;-52
2022/06/03 06:21:59;;;;;;;29.58;19.50;;;;;;;;;;5031717;28;20045;-50
2022/06/03 06:24:45;;;;;;;26.92;18.15;;;;;;;;;;5032199;28;20556;-49
2022/06/03 06:27:33;;;;;;;18.55;13.52;;;;;;;;;;5031461;28;20061;-53
2022/06/03 06:30:28;;;;;;;18.80;13.40;;;;;;;;;;5031993;28;20053;-50
2022/06/03 06:33:26;;;;;;;19.10;12.77;;;;;;;;;;5031557;28;20049;-50
2022/06/03 06:36:23;;;;;;;15.68;13.00;;;;;;;;;;5031816;28;20122;-52
2022/06/03 06:39:02;;;;;;;18.55;13.45;;;;;;;;;;4988020;28;20053;-54
2022/06/03 06:41:42;;;;;;;17.25;12.95;;;;;;;;;;5031113;28;20140;-52
2022/06/03 06:44:11;;;;;;;18.35;13.20;;;;;;;;;;5031810;28;20045;-55
2022/06/03 06:47:04;;;;;;;18.67;13.02;;;;;;;;;;5031729;28;20430;-55
2022/06/03 06:49:36;;;;;;;20.20;14.27;;;;;;;;;;5029295;28;20060;-50
2022/06/03 06:52:23;;;;;;;20.60;13.30;;;;;;;;;;5031538;28;20060;-49
2022/06/03 06:54:57;;;;;;;20.20;12.70;;;;;;;;;;5031424;28;20045;-50
2022/06/03 06:57:29;;;;;;;19.27;12.95;;;;;;;;;;5030902;28;20057;-62
2022/06/03 07:00:02;;;;;;;19.58;12.27;;;;;;;;;;5019540;28;20045;-56
2022/06/03 07:02:32;;;;;;;21.05;12.25;;;;;;;;;;5031377;28;20059;-51
2022/06/03 07:05:07;;;;;;;19.05;13.85;;;;;;;;;;5031225;28;20045;-57
2022/06/03 07:07:38;;;;;;;151.18;63.03;;;;;;;;;;5031723;28;20061;-52
2022/06/03 07:10:12;;;;;;;28.20;17.90;;;;;;;;;;5031429;28;20053;-54
2022/06/03 07:12:46;;;;;;;28.00;15.98;;;;;;;;;;5030425;28;20474;-51
2022/06/03 07:15:15;;;;;;;22.08;13.75;;;;;;;;;;5024818;28;20057;-53
2022/06/03 07:20:50;;;;;;;17.45;12.73;;;;;;;;;;5010271;28;20049;-56
2022/06/03 07:23:24;;;;;;;24.50;12.60;;;;;;;;;;5028232;28;20128;-52
2022/06/03 07:25:56;;;;;;;16.17;11.32;;;;;;;;;;5029630;28;20100;-54
2022/06/03 07:28:38;;;;;;;13.82;10.77;;;;;;;;;;5029334;28;20426;-55
2022/06/03 07:31:14;;;;;;;20.58;11.15;;;;;;;;;;5028793;28;20112;-50
2022/06/03 07:33:49;;;;;;;18.35;10.07;;;;;;;;;;5029240;28;20049;-53
2022/06/03 07:36:25;;;;;;;19.45;10.32;;;;;;;;;;5028986;28;20481;-55
2022/06/03 07:38:56;;;;;;;14.88;9.80;;;;;;;;;;5029594;28;20392;-55
2022/06/03 07:41:29;;;;;;;15.18;9.25;;;;;;;;;;5028738;28;20132;-57
2022/06/03 07:44:02;;;;;;;14.70;9.65;;;;;;;;;;5029612;28;20065;-56
2022/06/03 07:46:34;;;;;;;15.40;10.05;;;;;;;;;;5029556;28;20049;-53
2022/06/03 07:49:04;;;;;;;17.75;10.23;;;;;;;;;;5029604;28;20057;-57
2022/06/03 07:51:37;;;;;;;16.70;10.15;;;;;;;;;;5031880;28;20595;-58
2022/06/03 07:54:07;;;;;;;18.05;11.00;;;;;;;;;;5032502;28;20123;-56
2022/06/03 07:56:37;;;;;;;17.92;11.98;;;;;;;;;;5031759;28;20049;-57
2022/06/03 07:59:09;;;;;;;18.17;11.90;;;;;;;;;;5027216;28;20414;-57
2022/06/03 08:01:42;;;;;;;19.67;12.02;;;;;;;;;;5032317;28;20083;-59
2022/06/03 08:04:09;;;;;;;18.08;11.45;;;;;;;;;;5032046;28;20050;-54
2022/06/03 08:12:12;;;;;;;15.05;9.77;;;;;;;;;;5012997;28;20075;-50
2022/06/03 08:14:40;;;;;;;16.45;10.40;;;;;;;;;;5028048;28;20049;-53
2022/06/03 08:17:10;;;;;;;17.10;10.15;;;;;;;;;;5028860;28;20495;-52
2022/06/03 08:19:40;;;;;;;15.88;10.07;;;;;;;;;;5013765;28;20050;-54
2022/06/03 08:22:08;;;;;;;21.05;11.60;;;;;;;;;;5024963;28;20114;-53
2022/06/03 08:24:39;;;;;;;35.67;18.85;;;;;;;;;;5013208;28;20046;-59
2022/06/03 08:27:10;;;;;;;51.58;25.60;;;;;;;;;;5027312;28;20057;-55
2022/06/03 08:29:42;;;;;;;75.70;33.92;;;;;;;;;;5028224;28;20056;-56
2022/06/03 08:32:14;;;;;;;55.95;27.60;;;;;;;;;;5031479;28;20383;-56
2022/06/03 08:34:46;;;;;;;29.42;16.45;;;;;;;;;;5030163;28;20526;-54
2022/06/03 08:37:16;;;;;;;18.75;12.00;;;;;;;;;;5013103;28;20407;-57
2022/06/03 08:39:46;;;;;;;41.35;21.23;;;;;;;;;;5022749;28;20060;-56
2022/06/03 08:42:30;;;;;;;31.48;17.58;;;;;;;;;;5028445;28;20045;-54
2022/06/03 08:45:21;;;;;;;21.13;12.55;;;;;;;;;;5032192;28;20042;-57
2022/06/03 08:47:53;;;;;;;16.50;11.05;;;;;;;;;;5031552;28;20054;-56
2022/06/03 08:50:29;;;;;;;17.33;11.32;;;;;;;;;;5031698;28;20049;-57
2022/06/03 08:53:05;;;;;;;31.17;16.67;;;;;;;;;;5028352;28;20088;-57
2022/06/03 08:55:46;;;;;;;17.92;11.52;;;;;;;;;;5029564;28;20050;-57
2022/06/03 08:58:23;;;;;;;20.00;13.00;;;;;;;;;;5021164;28;20042;-55
2022/06/03 09:01:02;;;;;;;17.92;12.63;;;;;;;;;;5011464;28;20050;-57
2022/06/03 09:03:33;;;;;;;17.20;11.00;;;;;;;;;;5011788;28;20054;-62
2022/06/03 09:06:06;;;;;;;16.15;11.32;;;;;;;;;;5023400;28;20049;-56
2022/06/03 09:08:38;;;;;;;17.60;10.60;;;;;;;;;;5031875;28;20103;-58
2022/06/03 09:11:14;;;;;;;19.30;12.02;;;;;;;;;;5031486;28;20442;-58
2022/06/03 09:13:48;;;;;;;17.17;11.45;;;;;;;;;;5031808;28;20057;-57
2022/06/03 09:16:20;;;;;;;15.43;10.57;;;;;;;;;;5031221;28;20176;-58
2022/06/03 09:18:51;;;;;;;18.05;11.77;;;;;;;;;;5031089;28;20525;-57
2022/06/03 09:21:24;;;;;;;16.13;10.88;;;;;;;;;;5030382;28;20107;-56
2022/06/03 09:23:58;;;;;;;15.45;10.73;;;;;;;;;;5030177;28;20061;-56
2022/06/03 09:26:29;;;;;;;13.27;10.35;;;;;;;;;;5031514;28;20053;-56
2022/06/03 09:28:58;;;;;;;14.80;10.25;;;;;;;;;;5031102;28;20598;-55
2022/06/03 09:31:26;;;;;;;15.77;10.00;;;;;;;;;;5030645;28;20525;-55
2022/06/03 09:33:56;;;;;;;14.07;10.05;;;;;;;;;;5030798;28;20053;-55
2022/06/03 09:36:23;;;;;;;16.00;10.07;;;;;;;;;;5031077;28;20399;-55
2022/06/03 09:38:54;;;;;;;18.83;10.73;;;;;;;;;;5029699;28;20083;-54
2022/06/03 09:41:28;;;;;;;;;;;;;;;;;;5030654;28;20053;-54
2022/06/03 09:43:56;;;;;;;12.05;9.55;;;;;;;;;;5031034;28;19921;-56
2022/06/03 09:46:28;;;;;;;14.07;9.90;;;;;;;;;;5031242;28;20152;-53
2022/06/03 09:48:56;;;;;;;12.15;9.77;;;;;;;;;;5030725;28;20046;-54
2022/06/03 09:51:55;;;;;;;12.40;9.75;;;;;;;;;;5030526;28;20135;-54
2022/06/03 09:54:13;;;;;;;13.77;10.10;;;;;;;;;;5030334;28;20053;-56
2022/06/03 09:56:46;;;;;;;13.93;9.15;;;;;;;;;;5030802;28;20057;-57
2022/06/03 09:59:13;;;;;;;11.88;9.43;;;;;;;;;;5025683;28;20057;-56
2022/06/03 10:01:42;;;;;;;12.18;9.85;;;;;;;;;;5029843;28;20136;-52
2022/06/03 10:04:08;;;;;;;13.50;10.20;;;;;;;;;;5030332;28;20049;-56
2022/06/03 10:06:46;;;;;;;16.45;11.02;;;;;;;;;;5030570;28;20407;-58
2022/06/03 10:15:37;;;;;;;15.65;11.13;;;;;;;;;;5028321;28;20445;-54
2022/06/03 10:17:35;;;;;;;15.73;11.23;;;;;;;;;;5029406;28;20451;-57
2022/06/03 10:20:02;;;;;;;14.38;10.63;;;;;;;;;;5030379;28;20057;-55
2022/06/03 10:22:29;;;;;;;16.05;11.57;;;;;;;;;;5029117;28;20057;-54
2022/06/03 10:24:57;;;;;;;14.35;10.95;;;;;;;;;;5028998;28;20710;-57
2022/06/03 10:27:23;;;;;;;14.65;10.70;;;;;;;;;;5028171;28;20132;-54
2022/06/03 10:29:52;;;;;;;15.43;10.60;;;;;;;;;;5030079;28;20065;-56
2022/06/03 10:32:22;;;;;;;14.02;10.98;;;;;;;;;;5029368;28;20103;-56
2022/06/03 10:34:51;;;;;;;13.23;10.02;;;;;;;;;;5030012;28;20080;-57
2022/06/03 10:37:22;;;;;;;15.68;10.32;;;;;;;;;;5030207;28;20403;-57
2022/06/03 10:39:53;;;;;;;15.63;11.13;;;;;;;;;;5029861;28;20385;-57
2022/06/03 10:42:23;;;;;;;16.42;11.48;;;;;;;;;;5027932;28;20045;-55
2022/06/03 10:44:55;;;;;;;13.30;10.82;;;;;;;;;;5029541;28;20056;-54
2022/06/03 10:47:24;;;;;;;14.50;10.82;;;;;;;;;;5010642;28;20046;-53
2022/06/03 10:49:54;;;;;;;15.75;11.85;;;;;;;;;;5010500;28;20054;-62
2022/06/03 11:03:34;;;;;;;25.58;17.77;;;;;;;;;;5026062;28;20449;-61
2022/06/03 11:06:08;;;;;;;17.00;12.50;;;;;;;;;;5028652;28;20048;-65
2022/06/03 11:08:48;;;;;;;19.52;13.38;;;;;;;;;;5028769;28;20055;-59
2022/06/03 11:11:15;;;;;;;20.42;13.10;;;;;;;;;;5023949;28;20096;-64
2022/06/03 11:13:42;;;;;;;15.15;12.15;;;;;;;;;;5010200;28;20058;-64
2022/06/03 11:16:20;;;;;;;17.08;12.30;;;;;;;;;;5015451;28;20050;-55
2022/06/03 11:18:46;;;;;;;15.43;11.63;;;;;;;;;;5028529;28;20531;-55
2022/06/03 11:21:23;;;;;;;18.17;13.40;;;;;;;;;;5026586;28;20481;-60
2022/06/03 11:23:50;;;;;;;16.83;12.35;;;;;;;;;;5027734;28;20045;-63
2022/06/03 11:26:17;;;;;;;15.23;11.70;;;;;;;;;;5029537;28;20057;-68
2022/06/03 11:28:51;;;;;;;16.75;11.68;;;;;;;;;;5027490;28;20041;-62
2022/06/03 11:31:23;;;;;;;20.05;12.80;;;;;;;;;;5031904;28;20065;-61
2022/06/03 11:33:55;;;;;;;15.90;11.93;;;;;;;;;;5032448;28;20084;-61
2022/06/03 11:36:30;;;;;;;14.02;11.15;;;;;;;;;;5033091;28;20144;-61
2022/06/03 11:39:02;;;;;;;16.45;12.27;;;;;;;;;;5033155;28;20482;-62
2022/06/03 11:41:33;;;;;;;15.75;13.25;;;;;;;;;;5032677;28;20056;-59
2022/06/03 11:44:08;;;;;;;15.32;12.35;;;;;;;;;;5033301;28;20051;-60
2022/06/03 11:46:38;;;;;;;19.30;12.88;;;;;;;;;;5032517;28;20128;-59
2022/06/03 11:49:06;;;;;;;;;;;;;;;;;;5033207;28;20045;-60
2022/06/03 11:51:35;;;;;;;16.55;11.88;;;;;;;;;;5015033;28;19926;-60
2022/06/03 11:54:04;;;;;;;17.35;12.45;;;;;;;;;;5033950;28;20305;-60
2022/06/03 11:56:36;;;;;;;19.05;13.63;;;;;;;;;;5034083;28;20065;-60
2022/06/03 11:59:08;;;;;;;16.88;12.23;;;;;;;;;;5034435;28;20505;-59
2022/06/03 12:01:46;;;;;;;18.35;12.48;;;;;;;;;;5034746;28;20100;-60
2022/06/03 12:04:26;;;;;;;16.00;12.50;;;;;;;;;;5034494;28;20076;-59
2022/06/03 12:07:12;;;;;;;19.52;12.90;;;;;;;;;;5034190;28;20087;-60
2022/06/03 12:09:47;;;;;;;17.13;12.18;;;;;;;;;;5034035;28;20060;-60
2022/06/03 12:15:42;;;;;;;16.55;13.05;;;;;;;;;;5033365;28;20071;-60
2022/06/03 12:18:42;;;;;;;19.40;13.90;;;;;;;;;;5033261;28;20049;-60
2022/06/03 12:21:13;;;;;;;14.55;12.43;;;;;;;;;;5028041;28;20061;-60
2022/06/03 12:23:53;;;;;;;17.75;13.65;;;;;;;;;;5032954;28;20037;-59
2022/06/03 12:26:24;;;;;;;15.15;13.45;;;;;;;;;;5032384;28;20057;-56
2022/06/03 12:28:53;;;;;;;14.88;12.25;;;;;;;;;;5031029;28;20108;-55
2022/06/03 12:31:37;;;;;;;14.02;12.30;;;;;;;;;;5030085;28;20049;-56
2022/06/03 12:34:20;;;;;;;17.00;12.98;;;;;;;;;;5030502;28;20045;-57
2022/06/03 12:36:55;;;;;;;14.52;12.38;;;;;;;;;;5031381;28;20060;-53
2022/06/03 12:39:27;;;;;;;18.35;14.95;;;;;;;;;;5032716;28;20049;-57
2022/06/03 12:42:12;;;;;;;18.67;14.15;;;;;;;;;;5031735;28;20053;-55
2022/06/03 12:44:46;;;;;;;16.33;13.23;;;;;;;;;;5031356;28;20045;-58
2022/06/03 12:47:48;;;;;;;15.68;12.35;;;;;;;;;;5032059;28;20053;-58
2022/06/03 12:50:36;;;;;;;16.10;13.65;;;;;;;;;;5023823;28;20462;-59
2022/06/03 12:53:24;;;;;;;14.55;12.65;;;;;;;;;;5030966;28;20107;-59
2022/06/03 12:56:01;;;;;;;19.98;14.10;;;;;;;;;;5031816;28;20072;-60
2022/06/03 12:58:49;;;;;;;16.27;12.75;;;;;;;;;;5030772;28;20051;-57
2022/06/03 13:01:33;;;;;;;14.40;12.32;;;;;;;;;;5029847;28;20053;-59
2022/06/03 13:04:48;;;;;;;15.65;12.48;;;;;;;;;;5031117;28;20054;-56
2022/06/03 13:07:54;;;;;;;16.38;13.07;;;;;;;;;;5030772;28;20115;-57
2022/06/03 13:10:28;;;;;;;17.27;13.48;;;;;;;;;;5031263;28;20100;-58
2022/06/03 13:13:12;;;;;;;21.30;14.25;;;;;;;;;;5030937;28;20111;-59
2022/06/03 13:15:48;;;;;;;17.42;13.60;;;;;;;;;;5031116;28;20435;-56
2022/06/03 13:18:34;;;;;;;17.15;13.45;;;;;;;;;;5031529;28;20046;-57
2022/06/03 13:21:20;;;;;;;17.65;13.27;;;;;;;;;;5031464;28;20464;-56
2022/06/03 13:23:59;;;;;;;15.70;13.43;;;;;;;;;;5031473;28;20056;-57
2022/06/03 13:26:56;;;;;;;18.33;14.27;;;;;;;;;;5028459;28;20064;-58
2022/06/03 13:30:11;;;;;;;16.95;12.52;;;;;;;;;;5029333;28;20286;-56
2022/06/03 13:33:19;;;;;;;22.95;15.30;;;;;;;;;;5030998;28;20297;-58
2022/06/03 13:36:03;;;;;;;21.35;14.75;;;;;;;;;;5017665;28;20065;-56
2022/06/03 13:38:42;;;;;;;17.35;14.05;;;;;;;;;;5028756;28;20406;-55
2022/06/03 13:44:19;;;;;;;19.00;14.73;;;;;;;;;;5031045;28;20414;-55
2022/06/03 13:46:48;;;;;;;20.13;15.77;;;;;;;;;;5030937;28;20111;-55
2022/06/03 13:49:27;;;;;;;21.70;14.73;;;;;;;;;;5030455;28;20053;-58
2022/06/03 13:52:04;;;;;;;18.95;15.20;;;;;;;;;;5030913;28;20306;-57
2022/06/03 13:54:38;;;;;;;21.23;15.43;;;;;;;;;;5030410;28;20110;-59
2022/06/03 13:57:23;;;;;;;18.35;15.05;;;;;;;;;;5030996;28;20383;-58
2022/06/03 13:59:51;;;;;;;16.73;14.77;;;;;;;;;;5020215;28;20041;-54
2022/06/03 14:02:29;;;;;;;18.58;15.15;;;;;;;;;;5030133;28;20068;-59
2022/06/03 14:05:02;;;;;;;19.95;15.20;;;;;;;;;;5029319;28;20103;-55
2022/06/03 14:07:36;;;;;;;14.82;13.25;;;;;;;;;;5029075;28;20649;-52
2022/06/03 14:10:08;;;;;;;17.83;13.10;;;;;;;;;;5029940;28;20053;-53
2022/06/03 14:12:43;;;;;;;19.42;13.38;;;;;;;;;;5030530;28;20050;-57
2022/06/03 14:15:18;;;;;;;17.17;13.70;;;;;;;;;;5030406;28;20151;-57
2022/06/03 14:17:55;;;;;;;17.42;12.77;;;;;;;;;;5030720;28;20494;-59
2022/06/03 14:20:30;;;;;;;16.70;12.55;;;;;;;;;;5029716;28;20083;-60
2022/06/03 14:23:09;;;;;;;14.90;12.07;;;;;;;;;;5029063;28;20049;-58
2022/06/03 14:25:40;;;;;;;13.93;12.43;;;;;;;;;;5028534;28;20143;-56
2022/06/03 14:28:10;;;;;;;14.43;12.35;;;;;;;;;;5027396;28;20054;-56
2022/06/03 14:30:46;;;;;;;15.85;12.45;;;;;;;;;;5024518;28;20103;-60
2022/06/03 14:33:15;;;;;;;18.35;12.18;;;;;;;;;;5029752;28;20441;-58
2022/06/03 14:35:47;;;;;;;15.35;11.32;;;;;;;;;;5029973;28;20400;-56
2022/06/03 14:38:21;;;;;;;16.30;11.57;;;;;;;;;;5029425;28;20057;-55
2022/06/03 14:40:51;;;;;;;15.90;11.20;;;;;;;;;;5029316;28;20049;-56
2022/06/03 14:43:24;;;;;;;12.80;10.90;;;;;;;;;;5020297;28;20060;-57
2022/06/03 14:45:54;;;;;;;15.43;10.80;;;;;;;;;;5029846;28;20053;-57
2022/06/03 14:48:25;;;;;;;13.07;10.15;;;;;;;;;;5028960;28;20099;-57
2022/06/03 14:50:59;;;;;;;13.80;10.75;;;;;;;;;;5030057;28;20087;-66
2022/06/03 14:53:32;;;;;;;14.40;11.02;;;;;;;;;;5010294;28;20104;-67
2022/06/03 14:56:11;;;;;;;14.18;11.07;;;;;;;;;;5016944;28;20052;-63
2022/06/03 14:58:41;;;;;;;21.42;13.05;;;;;;;;;;5029713;28;20134;-63
2022/06/03 15:01:28;;;;;;;;;;;;;;;;;;5035835;28;20081;-66
2022/06/03 15:04:02;;;;;;;15.80;11.15;;;;;;;;;;5030346;28;19921;-54
2022/06/03 15:06:37;;;;;;;17.42;11.90;;;;;;;;;;5028937;28;20053;-59
2022/06/03 15:09:09;;;;;;;16.88;11.52;;;;;;;;;;5033504;28;20059;-63
2022/06/03 15:11:41;;;;;;;15.95;11.60;;;;;;;;;;5033205;28;20103;-61
2022/06/03 15:14:10;;;;;;;16.38;10.73;;;;;;;;;;5032006;28;20061;-66
2022/06/03 15:16:51;;;;;;;16.75;11.50;;;;;;;;;;5030334;28;20049;-62
2022/06/03 15:19:37;;;;;;;12.73;10.55;;;;;;;;;;5032773;28;20046;-61
2022/06/03 15:22:13;;;;;;;12.95;10.52;;;;;;;;;;5033207;28;20084;-58
2022/06/03 15:24:47;;;;;;;13.70;11.05;;;;;;;;;;5033242;28;20064;-58
2022/06/03 15:27:15;;;;;;;15.60;12.10;;;;;;;;;;5033439;28;20057;-57
2022/06/03 15:29:45;;;;;;;12.50;10.70;;;;;;;;;;5032710;28;20049;-59
2022/06/03 15:32:13;;;;;;;14.23;10.50;;;;;;;;;;5033364;28;20112;-55
2022/06/03 15:34:40;;;;;;;13.23;10.63;;;;;;;;;;5032102;28;20049;-58
2022/06/03 15:37:08;;;;;;;14.30;11.32;;;;;;;;;;5033457;28;20498;-56
2022/06/03 15:39:37;;;;;;;17.40;10.70;;;;;;;;;;5033189;28;20441;-56
2022/06/03 15:42:10;;;;;;;13.75;10.77;;;;;;;;;;5032997;28;20053;-59
2022/06/03 15:44:39;;;;;;;13.65;10.77;;;;;;;;;;5031381;28;20510;-59
2022/06/03 15:47:16;;;;;;;16.25;10.82;;;;;;;;;;5031894;28;20060;-59
2022/06/03 15:49:50;;;;;;;15.60;11.35;;;;;;;;;;5031123;28;20042;-57
2022/06/03 15:52:18;;;;;;;16.13;11.30;;;;;;;;;;5033171;28;20549;-57
2022/06/03 15:54:55;;;;;;;17.90;11.45;;;;;;;;;;5017234;28;20049;-58
2022/06/03 15:57:39;;;;;;;14.93;11.30;;;;;;;;;;5030632;28;20506;-57
2022/06/03 16:00:13;;;;;;;16.15;10.93;;;;;;;;;;5033949;28;20057;-57
2022/06/03 16:02:57;;;;;;;16.55;11.10;;;;;;;;;;5023828;28;20115;-57
2022/06/03 16:05:31;;;;;;;18.05;12.70;;;;;;;;;;5033337;28;20045;-56
2022/06/03 16:08:16;;;;;;;18.85;14.88;;;;;;;;;;5033597;28;20095;-56
2022/06/03 16:10:54;;;;;;;19.05;12.20;;;;;;;;;;5033196;28;20044;-56
2022/06/03 16:13:36;;;;;;;17.15;12.25;;;;;;;;;;5034911;28;20388;-58
2022/06/03 16:16:14;;;;;;;17.33;10.07;;;;;;;;;;5034103;28;20050;-57
2022/06/03 16:19:03;;;;;;;22.65;8.80;;;;;;;;;;5034472;28;20124;-55
2022/06/03 16:21:44;;;;;;;23.00;10.32;;;;;;;;;;5034553;28;20041;-58